Time;durP1;ratioP1;P1;durP2;ratioP2;P2;SDS_P1;SDS_P2;PMS_P1;PMS_P2;Temp;Humidity;BMP_temperature;BMP_pressure;BME280_temperature;BME280_humidity;BME280_pressure;Samples;Min_cycle;Max_cycle;Signal;HPM_P1;HPM_P2
2022/01/09 00:00:30;;;;;;;48.05;7.43;;;8.60;99.90;;;;;;4212596;28;20055;-79
2022/01/09 00:02:32;;;;;;;52.40;7.60;;;8.70;99.90;;;;;;4220314;28;20040;-80
2022/01/09 00:04:34;;;;;;;46.63;7.70;;;8.70;99.90;;;;;;4210150;28;20101;-80
2022/01/09 00:06:36;;;;;;;37.95;5.80;;;8.70;99.90;;;;;;4226001;27;20523;-78
2022/01/09 00:08:38;;;;;;;37.40;5.38;;;8.70;99.90;;;;;;4226624;28;20075;-80
2022/01/09 00:10:46;;;;;;;35.40;4.80;;;8.70;99.90;;;;;;4244909;28;20499;-80
2022/01/09 00:12:48;;;;;;;36.25;5.13;;;8.80;99.90;;;;;;4226370;28;20130;-79
2022/01/09 00:14:51;;;;;;;37.97;7.40;;;8.80;99.90;;;;;;4226506;28;20075;-80
2022/01/09 00:16:53;;;;;;;38.00;5.40;;;8.90;99.90;;;;;;4226928;28;20055;-79
2022/01/09 00:18:55;;;;;;;43.80;5.75;;;8.90;99.90;;;;;;4222834;28;20440;-80
2022/01/09 00:20:58;;;;;;;44.38;6.82;;;8.80;99.90;;;;;;4215317;28;20109;-81
2022/01/09 00:23:00;;;;;;;41.03;5.20;;;8.80;99.90;;;;;;4215477;28;20510;-80
2022/01/09 00:25:03;;;;;;;48.35;6.50;;;8.70;99.90;;;;;;4220039;28;20944;-79
2022/01/09 00:27:05;;;;;;;49.53;5.78;;;8.70;99.90;;;;;;4198422;28;20076;-80
2022/01/09 00:29:09;;;;;;;40.42;6.78;;;8.80;99.90;;;;;;4216144;28;20079;-80
2022/01/09 00:31:11;;;;;;;47.75;6.22;;;8.80;99.90;;;;;;4198297;28;20040;-79
2022/01/09 00:33:13;;;;;;;66.97;8.38;;;8.80;99.90;;;;;;4200908;28;20075;-79
2022/01/09 00:35:16;;;;;;;62.33;7.60;;;8.80;99.90;;;;;;4216027;28;20047;-79
2022/01/09 00:37:18;;;;;;;70.05;9.43;;;8.80;99.90;;;;;;4214676;28;20129;-79
2022/01/09 00:39:20;;;;;;;54.90;7.85;;;8.70;99.90;;;;;;4198301;28;20131;-79
2022/01/09 00:41:22;;;;;;;51.10;6.10;;;8.70;99.90;;;;;;4197867;28;20558;-81
2022/01/09 00:43:23;;;;;;;45.75;5.90;;;8.60;99.90;;;;;;4214561;28;20151;-79
2022/01/09 00:45:25;;;;;;;40.35;6.03;;;8.60;99.90;;;;;;4214780;28;20098;-80
2022/01/09 00:47:27;;;;;;;42.00;5.88;;;8.50;99.90;;;;;;4214898;28;20136;-81
2022/01/09 00:49:29;;;;;;;35.38;4.55;;;8.40;99.90;;;;;;4227349;28;20070;-80
2022/01/09 00:51:31;;;;;;;31.13;3.85;;;8.40;99.90;;;;;;4248454;27;20102;-79
2022/01/09 00:53:38;;;;;;;35.58;4.53;;;8.40;99.90;;;;;;4232691;28;20096;-79
2022/01/09 00:55:40;;;;;;;40.78;5.50;;;8.40;99.90;;;;;;4206451;28;20789;-77
2022/01/09 00:57:42;;;;;;;35.38;5.72;;;8.40;99.90;;;;;;4230109;28;20134;-79
2022/01/09 00:59:44;;;;;;;39.10;4.20;;;8.40;99.90;;;;;;4214261;28;20135;-79
2022/01/09 01:01:46;;;;;;;36.03;4.90;;;8.40;99.90;;;;;;4207864;28;20075;-80
2022/01/09 01:03:48;;;;;;;32.97;4.68;;;8.50;99.90;;;;;;4210293;28;20048;-80
2022/01/09 01:05:51;;;;;;;32.92;4.65;;;8.50;99.90;;;;;;4213052;28;20052;-79
2022/01/09 01:07:53;;;;;;;40.72;5.80;;;8.50;99.90;;;;;;4198173;28;20080;-80
2022/01/09 01:09:57;;;;;;;36.10;5.13;;;8.50;99.90;;;;;;4215811;28;20048;-79
2022/01/09 01:11:59;;;;;;;48.00;5.57;;;8.60;99.90;;;;;;4214309;28;20097;-79
2022/01/09 01:14:02;;;;;;;44.30;5.28;;;8.60;99.90;;;;;;4213876;28;20044;-81
2022/01/09 01:16:04;;;;;;;40.78;5.90;;;8.60;99.90;;;;;;4197683;28;20059;-79
2022/01/09 01:18:06;;;;;;;42.55;5.95;;;8.60;99.90;;;;;;4199485;28;20134;-79
2022/01/09 01:20:09;;;;;;;45.58;4.82;;;8.60;99.90;;;;;;4215471;28;20079;-80
2022/01/09 01:22:10;;;;;;;38.30;5.10;;;8.60;99.90;;;;;;4197052;28;20174;-80
2022/01/09 01:24:12;;;;;;;42.17;6.32;;;8.60;99.90;;;;;;4227158;28;20051;-80
2022/01/09 01:26:14;;;;;;;39.38;6.35;;;8.60;99.90;;;;;;4231763;28;20095;-80
2022/01/09 01:28:17;;;;;;;37.55;5.13;;;8.70;99.90;;;;;;4243803;27;20110;-78
2022/01/09 01:30:19;;;;;;;48.28;4.75;;;8.70;99.90;;;;;;4213253;28;20051;-82
2022/01/09 01:32:22;;;;;;;33.97;4.95;;;8.70;99.90;;;;;;4214606;28;20522;-80
2022/01/09 01:34:24;;;;;;;38.42;5.05;;;8.70;99.90;;;;;;4204450;28;20044;-80
2022/01/09 01:36:26;;;;;;;29.70;4.35;;;8.70;99.90;;;;;;4213531;28;20090;-80
2022/01/09 01:38:28;;;;;;;37.83;5.45;;;8.70;99.90;;;;;;4213555;28;20055;-80
2022/01/09 01:40:30;;;;;;;27.83;4.88;;;8.70;99.90;;;;;;4216554;28;20495;-79
2022/01/09 01:42:32;;;;;;;36.13;3.63;;;8.60;99.90;;;;;;4214257;28;20044;-81
2022/01/09 01:44:45;;;;;;;28.48;3.92;;;8.60;99.90;;;;;;4214100;28;20087;-79
2022/01/09 01:46:47;;;;;;;34.20;4.35;;;8.70;99.90;;;;;;4214200;28;20134;-82
2022/01/09 01:48:49;;;;;;;19.10;3.03;;;8.70;99.90;;;;;;4212471;28;20074;-81
2022/01/09 01:50:51;;;;;;;23.40;3.78;;;8.70;99.90;;;;;;4214143;28;20067;-80
2022/01/09 01:52:54;;;;;;;25.77;3.30;;;8.60;99.90;;;;;;4211867;28;20040;-80
2022/01/09 01:54:56;;;;;;;29.15;3.25;;;8.40;99.90;;;;;;4199662;28;20084;-80
2022/01/09 01:56:58;;;;;;;41.78;4.82;;;8.30;99.90;;;;;;4214208;28;20068;-79
2022/01/09 01:59:00;;;;;;;29.88;3.55;;;8.10;99.90;;;;;;4214166;28;20095;-80
2022/01/09 02:01:03;;;;;;;38.75;4.75;;;7.60;99.90;;;;;;4211177;28;20040;-80
2022/01/09 02:03:04;;;;;;;29.38;4.25;;;7.50;99.90;;;;;;4208528;28;20072;-79
2022/01/09 02:05:07;;;;;;;46.97;4.68;;;7.40;99.90;;;;;;4213435;28;20040;-77
2022/01/09 02:07:10;;;;;;;35.30;4.50;;;7.30;99.90;;;;;;4213443;28;20075;-79
2022/01/09 02:09:12;;;;;;;46.63;4.85;;;7.30;99.90;;;;;;4229757;28;20075;-79
2022/01/09 02:11:14;;;;;;;49.05;6.53;;;7.30;99.90;;;;;;4213774;28;20292;-79
2022/01/09 02:13:18;;;;;;;37.63;5.18;;;7.30;99.90;;;;;;4230856;28;20051;-79
2022/01/09 02:15:38;;;;;;;43.92;4.30;;;7.30;99.90;;;;;;4197110;28;20059;-78
2022/01/09 02:17:43;;;;;;;27.80;3.40;;;7.30;99.90;;;;;;4210182;28;20075;-80
2022/01/09 02:20:04;;;;;;;40.58;4.63;;;7.40;99.90;;;;;;4214059;28;20040;-79
2022/01/09 02:22:06;;;;;;;38.90;5.07;;;7.40;99.90;;;;;;4197322;28;20083;-79
2022/01/09 02:24:08;;;;;;;33.88;3.72;;;7.40;99.90;;;;;;4197445;28;20072;-82
2022/01/09 02:26:11;;;;;;;27.10;3.72;;;7.30;99.90;;;;;;4203061;28;20048;-83
2022/01/09 02:28:15;;;;;;;45.78;5.18;;;7.40;99.90;;;;;;4213436;28;20040;-78
2022/01/09 02:30:16;;;;;;;46.17;4.88;;;7.30;99.90;;;;;;4215016;28;20051;-80
2022/01/09 02:32:19;;;;;;;45.75;5.78;;;7.30;99.90;;;;;;4230869;28;20046;-80
2022/01/09 02:34:21;;;;;;;30.38;4.03;;;7.40;99.90;;;;;;4229519;28;20049;-79
2022/01/09 02:36:23;;;;;;;40.90;3.92;;;7.60;99.90;;;;;;4203875;28;20473;-80
2022/01/09 02:38:25;;;;;;;30.67;3.38;;;7.60;99.90;;;;;;4196911;28;20511;-80
2022/01/09 02:40:27;;;;;;;36.90;4.32;;;7.80;99.90;;;;;;4196903;28;20040;-80
2022/01/09 02:42:30;;;;;;;26.17;3.13;;;7.80;99.90;;;;;;4196710;28;20048;-77
2022/01/09 02:44:32;;;;;;;33.22;3.53;;;7.80;99.90;;;;;;4213167;28;20048;-78
2022/01/09 02:47:17;;;;;;;29.58;3.67;;;7.80;99.90;;;;;;4215240;28;20075;-80
2022/01/09 02:49:03;;;;;;;30.08;3.28;;;7.80;99.90;;;;;;4220511;28;20078;-80
2022/01/09 02:51:11;;;;;;;36.88;4.00;;;7.80;99.90;;;;;;4213567;28;20075;-80
2022/01/09 02:53:21;;;;;;;30.00;3.35;;;7.80;99.90;;;;;;4213494;28;20075;-81
2022/01/09 02:55:24;;;;;;;20.48;2.55;;;7.70;99.90;;;;;;4215671;28;20078;-80
2022/01/09 02:57:26;;;;;;;24.52;2.83;;;7.60;99.90;;;;;;4214533;28;20076;-79
2022/01/09 02:59:28;;;;;;;39.50;4.40;;;7.60;99.90;;;;;;4213454;28;20091;-80
2022/01/09 03:01:29;;;;;;;42.95;3.58;;;7.60;99.90;;;;;;4213776;28;20044;-83
2022/01/09 03:03:32;;;;;;;20.02;3.30;;;7.60;99.90;;;;;;4214308;28;20549;-84
2022/01/09 03:05:35;;;;;;;37.97;4.07;;;7.50;99.90;;;;;;4216114;28;20071;-81
2022/01/09 03:07:38;;;;;;;29.48;3.80;;;7.40;99.90;;;;;;4225652;28;20086;-78
2022/01/09 03:09:40;;;;;;;27.08;3.50;;;7.40;99.90;;;;;;4233166;28;20503;-81
2022/01/09 03:11:47;;;;;;;21.50;2.88;;;7.40;99.90;;;;;;4231760;28;20052;-80
2022/01/09 03:13:49;;;;;;;28.42;3.75;;;7.40;99.90;;;;;;4227495;28;20040;-79
2022/01/09 03:15:51;;;;;;;26.77;3.35;;;7.40;99.90;;;;;;4227387;28;20044;-79
2022/01/09 03:17:53;;;;;;;24.08;3.10;;;7.40;99.90;;;;;;4211420;28;20080;-80
2022/01/09 03:19:55;;;;;;;28.33;3.17;;;7.40;99.90;;;;;;4211878;28;20048;-80
2022/01/09 03:21:57;;;;;;;31.25;3.50;;;7.30;99.90;;;;;;4211660;28;20132;-80
2022/01/09 03:23:58;;;;;;;26.15;3.17;;;7.30;99.90;;;;;;4227122;28;20072;-79
2022/01/09 03:26:02;;;;;;;30.17;3.38;;;7.30;99.90;;;;;;4211652;28;20533;-79
2022/01/09 03:28:04;;;;;;;26.80;3.35;;;7.30;99.90;;;;;;4213524;28;20506;-80
2022/01/09 03:30:08;;;;;;;33.83;3.80;;;7.20;99.90;;;;;;4232450;28;20081;-79
2022/01/09 03:32:11;;;;;;;24.83;3.17;;;7.20;99.90;;;;;;4241668;28;20133;-80
2022/01/09 03:34:13;;;;;;;31.10;3.55;;;7.20;99.90;;;;;;4226242;28;20086;-78
2022/01/09 03:36:14;;;;;;;28.35;3.70;;;7.20;99.90;;;;;;4224444;28;20627;-80
2022/01/09 03:38:16;;;;;;;27.83;3.67;;;7.10;99.90;;;;;;4228090;28;20134;-81
2022/01/09 03:40:20;;;;;;;46.85;4.22;;;7.10;99.90;;;;;;4227494;28;20143;-79
2022/01/09 03:42:22;;;;;;;33.15;3.78;;;7.10;99.90;;;;;;4226840;28;20090;-80
2022/01/09 03:44:25;;;;;;;32.65;3.13;;;7.00;99.90;;;;;;4226183;28;20043;-80
2022/01/09 03:46:27;;;;;;;22.38;2.75;;;7.00;99.90;;;;;;4211442;28;20075;-79
2022/01/09 03:48:30;;;;;;;32.20;4.50;;;7.00;99.90;;;;;;4212608;28;20055;-80
2022/01/09 03:50:33;;;;;;;25.05;3.08;;;7.00;99.90;;;;;;4220175;28;20048;-81
2022/01/09 03:52:37;;;;;;;32.00;3.92;;;7.00;99.90;;;;;;4213724;28;20139;-80
2022/01/09 03:54:39;;;;;;;19.50;2.50;;;7.00;99.90;;;;;;4214118;28;20072;-80
2022/01/09 03:56:42;;;;;;;26.50;3.30;;;7.00;99.90;;;;;;4214164;28;20127;-81
2022/01/09 03:58:44;;;;;;;25.33;3.38;;;7.00;99.90;;;;;;4215254;28;20068;-78
2022/01/09 04:00:46;;;;;;;23.80;3.03;;;7.00;99.90;;;;;;4214694;28;20044;-79
2022/01/09 04:02:50;;;;;;;38.45;3.58;;;7.00;99.90;;;;;;4217573;28;20093;-81
2022/01/09 04:04:52;;;;;;;30.07;4.20;;;7.00;99.90;;;;;;4224780;28;20044;-84
2022/01/09 04:06:54;;;;;;;37.75;3.28;;;7.10;99.90;;;;;;4227366;28;20387;-79
2022/01/09 04:08:58;;;;;;;25.70;3.22;;;7.10;99.90;;;;;;4215507;28;20076;-79
2022/01/09 04:11:04;;;;;;;34.67;4.00;;;7.10;99.90;;;;;;4215618;28;20051;-80
2022/01/09 04:13:07;;;;;;;18.27;3.10;;;7.20;99.90;;;;;;4228744;28;20067;-80
2022/01/09 04:15:09;;;;;;;27.23;4.00;;;7.20;99.90;;;;;;4216310;28;20538;-80
2022/01/09 04:17:22;;;;;;;27.35;3.25;;;7.20;99.90;;;;;;4216128;28;20087;-80
2022/01/09 04:19:24;;;;;;;22.63;3.42;;;7.20;99.90;;;;;;4214540;28;20079;-79
2022/01/09 04:21:26;;;;;;;25.58;3.17;;;7.10;99.90;;;;;;4227524;27;20069;-79
2022/01/09 04:23:28;;;;;;;40.92;4.57;;;7.10;99.90;;;;;;4227785;28;20468;-77
2022/01/09 04:25:30;;;;;;;43.22;4.60;;;7.20;99.90;;;;;;4231357;28;20403;-78
2022/01/09 04:27:33;;;;;;;32.72;3.83;;;7.30;99.90;;;;;;4231530;28;20048;-80
2022/01/09 04:29:35;;;;;;;37.47;3.67;;;7.30;99.90;;;;;;4232395;28;20043;-80
2022/01/09 04:31:37;;;;;;;28.88;4.53;;;7.40;99.90;;;;;;4216357;28;20136;-81
2022/01/09 04:33:40;;;;;;;34.50;3.10;;;7.40;99.90;;;;;;4215033;28;20752;-79
2022/01/09 04:35:42;;;;;;;25.65;2.75;;;7.30;99.90;;;;;;4214756;28;20118;-80
2022/01/09 04:37:44;;;;;;;32.47;3.50;;;7.20;99.90;;;;;;4227114;28;20086;-80
2022/01/09 04:39:48;;;;;;;26.25;2.78;;;7.10;99.90;;;;;;4215758;28;20079;-83
2022/01/09 04:41:50;;;;;;;23.83;2.37;;;7.00;99.90;;;;;;4220340;28;20047;-80
2022/01/09 04:43:52;;;;;;;33.78;2.88;;;6.90;99.90;;;;;;4232076;28;20496;-79
2022/01/09 04:45:54;;;;;;;24.25;2.75;;;6.90;99.90;;;;;;4232321;28;20104;-79
2022/01/09 04:48:01;;;;;;;23.92;3.60;;;6.90;99.90;;;;;;4232059;28;20082;-78
2022/01/09 04:50:03;;;;;;;30.58;2.63;;;6.90;99.90;;;;;;4228706;28;20035;-78
2022/01/09 04:52:09;;;;;;;21.95;2.72;;;6.90;99.90;;;;;;4218662;28;20083;-78
2022/01/09 04:54:11;;;;;;;31.25;2.60;;;7.00;99.90;;;;;;4215307;28;20048;-80
2022/01/09 04:56:14;;;;;;;22.45;2.45;;;6.90;99.90;;;;;;4215152;28;20519;-80
2022/01/09 04:58:17;;;;;;;34.20;2.60;;;6.90;99.90;;;;;;4232276;28;20087;-78
2022/01/09 05:00:19;;;;;;;28.98;2.70;;;6.90;99.90;;;;;;4218905;28;20531;-78
2022/01/09 05:02:21;;;;;;;28.02;2.55;;;6.80;99.90;;;;;;4215011;28;20079;-80
2022/01/09 05:04:23;;;;;;;22.63;2.20;;;6.70;99.90;;;;;;4220754;28;20075;-80
2022/01/09 05:06:25;;;;;;;18.55;2.47;;;6.70;99.90;;;;;;4221793;28;20055;-80
2022/01/09 05:08:27;;;;;;;25.75;3.47;;;6.80;99.90;;;;;;4232956;28;20528;-81
2022/01/09 05:10:29;;;;;;;33.85;2.83;;;6.80;99.90;;;;;;4231755;28;20130;-80
2022/01/09 05:12:31;;;;;;;31.83;3.38;;;6.80;99.90;;;;;;4230636;28;20078;-80
2022/01/09 05:14:33;;;;;;;21.33;2.42;;;6.80;99.90;;;;;;4230491;28;20052;-79
2022/01/09 05:16:35;;;;;;;23.20;3.80;;;6.80;99.90;;;;;;4231233;28;20075;-79
2022/01/09 05:18:50;;;;;;;29.88;3.03;;;6.80;99.90;;;;;;4231208;28;20058;-80
2022/01/09 05:20:52;;;;;;;36.38;3.17;;;6.80;99.90;;;;;;4232930;28;20974;-83
2022/01/09 05:22:54;;;;;;;29.23;2.83;;;6.90;99.90;;;;;;4230362;28;20497;-80
2022/01/09 05:25:02;;;;;;;25.65;2.78;;;6.90;99.90;;;;;;4225297;28;20051;-80
2022/01/09 05:27:04;;;;;;;31.85;2.80;;;6.80;99.90;;;;;;4231616;28;20503;-78
2022/01/09 05:29:06;;;;;;;21.60;2.78;;;6.80;99.90;;;;;;4231333;28;20471;-79
2022/01/09 05:31:08;;;;;;;32.92;3.15;;;6.80;99.90;;;;;;4217839;28;20072;-79
2022/01/09 05:33:10;;;;;;;22.00;2.70;;;6.90;99.90;;;;;;4214452;28;20055;-79
2022/01/09 05:35:12;;;;;;;23.15;2.80;;;6.80;99.90;;;;;;4221307;28;20400;-80
2022/01/09 05:37:14;;;;;;;33.80;3.63;;;6.80;99.90;;;;;;4217394;28;20131;-78
2022/01/09 05:39:16;;;;;;;30.25;3.35;;;6.90;99.90;;;;;;4214885;28;20083;-78
2022/01/09 05:41:18;;;;;;;35.88;4.03;;;6.80;99.90;;;;;;4214573;28;20090;-80
2022/01/09 05:43:20;;;;;;;31.38;4.53;;;6.80;99.90;;;;;;4221172;28;20048;-77
2022/01/09 05:45:22;;;;;;;24.80;3.47;;;6.80;99.90;;;;;;4231318;28;20135;-80
2022/01/09 05:47:24;;;;;;;19.70;3.08;;;6.80;99.90;;;;;;4231530;28;20067;-82
2022/01/09 05:49:27;;;;;;;31.38;2.80;;;6.70;99.90;;;;;;4231555;28;20075;-79
2022/01/09 05:51:29;;;;;;;41.05;4.05;;;6.70;99.90;;;;;;4231104;28;20047;-80
2022/01/09 05:53:30;;;;;;;24.48;2.85;;;6.70;99.90;;;;;;4218026;28;20483;-80
2022/01/09 05:55:32;;;;;;;30.67;3.97;;;6.80;99.90;;;;;;4227442;28;20125;-80
2022/01/09 05:57:34;;;;;;;40.97;4.95;;;6.80;99.90;;;;;;4231284;28;20435;-80
2022/01/09 05:59:36;;;;;;;35.83;4.55;;;6.90;99.90;;;;;;4231366;28;20044;-79
2022/01/09 06:01:39;;;;;;;35.63;4.55;;;7.00;99.90;;;;;;4230144;28;20403;-81
2022/01/09 06:03:40;;;;;;;35.78;3.55;;;7.00;99.90;;;;;;4227274;28;20040;-77
2022/01/09 06:05:42;;;;;;;36.88;5.03;;;7.10;99.90;;;;;;4213885;28;20052;-80
2022/01/09 06:07:45;;;;;;;31.38;3.45;;;7.10;99.90;;;;;;4218324;28;20494;-79
2022/01/09 06:09:47;;;;;;;44.13;4.50;;;7.10;99.90;;;;;;4214950;28;20070;-80
2022/01/09 06:11:48;;;;;;;45.50;4.97;;;7.10;99.90;;;;;;4213912;28;20095;-78
2022/01/09 06:13:50;;;;;;;36.08;4.95;;;7.10;99.90;;;;;;4214200;28;20070;-79
2022/01/09 06:15:52;;;;;;;31.05;4.63;;;7.20;99.90;;;;;;4213256;28;20048;-80
2022/01/09 06:17:54;;;;;;;47.92;5.03;;;7.20;99.90;;;;;;4217808;28;20521;-79
2022/01/09 06:19:56;;;;;;;42.38;4.55;;;7.30;99.90;;;;;;4231685;28;20063;-81
2022/01/09 06:21:58;;;;;;;38.85;4.40;;;7.30;99.90;;;;;;4231128;28;20682;-80
2022/01/09 06:24:00;;;;;;;41.88;4.90;;;7.40;99.90;;;;;;4216260;28;20071;-80
2022/01/09 06:26:02;;;;;;;51.88;5.18;;;7.50;99.90;;;;;;4230748;28;20071;-80
2022/01/09 06:28:04;;;;;;;45.60;5.18;;;7.60;99.90;;;;;;4231610;28;20661;-77
2022/01/09 06:30:07;;;;;;;55.95;5.65;;;7.70;99.90;;;;;;4231704;28;20123;-77
2022/01/09 06:32:09;;;;;;;41.22;6.30;;;7.70;99.90;;;;;;4231190;28;20450;-80
2022/01/09 06:34:12;;;;;;;40.28;4.97;;;7.80;99.90;;;;;;4224790;28;20044;-77
2022/01/09 06:36:14;;;;;;;45.03;5.80;;;7.80;99.90;;;;;;4230922;28;20519;-80
2022/01/09 06:38:16;;;;;;;34.03;4.60;;;7.90;99.90;;;;;;4220123;28;20052;-80
2022/01/09 06:40:19;;;;;;;44.08;5.65;;;7.90;99.90;;;;;;4213502;28;20048;-79
2022/01/09 06:42:21;;;;;;;57.53;6.85;;;7.90;99.90;;;;;;4214511;28;20086;-80
2022/01/09 06:44:23;;;;;;;39.22;4.63;;;7.90;99.90;;;;;;4216232;28;20047;-83
2022/01/09 06:46:26;;;;;;;37.65;4.00;;;8.00;99.90;;;;;;4230163;28;20083;-78
2022/01/09 06:48:28;;;;;;;34.35;4.35;;;8.00;99.90;;;;;;4230155;28;20104;-79
2022/01/09 06:50:30;;;;;;;35.10;4.32;;;8.10;99.90;;;;;;4228399;28;20039;-79
2022/01/09 06:52:32;;;;;;;34.75;4.53;;;8.10;99.90;;;;;;4231076;27;20075;-78
2022/01/09 06:54:34;;;;;;;47.25;5.75;;;8.20;99.90;;;;;;4230115;28;20059;-79
2022/01/09 06:56:36;;;;;;;35.67;4.35;;;8.20;99.90;;;;;;4230299;28;20113;-80
2022/01/09 06:58:38;;;;;;;48.80;5.50;;;8.20;99.90;;;;;;4221878;28;20079;-80
2022/01/09 07:00:40;;;;;;;46.08;5.00;;;8.20;99.90;;;;;;4229926;28;20044;-78
2022/01/09 07:02:42;;;;;;;36.35;4.00;;;8.20;99.90;;;;;;4227192;28;20051;-78
2022/01/09 07:04:44;;;;;;;46.28;6.47;;;8.20;99.90;;;;;;4229949;28;20051;-78
2022/01/09 07:06:46;;;;;;;47.30;4.80;;;8.20;99.90;;;;;;4228006;28;20061;-78
2022/01/09 07:08:48;;;;;;;41.40;5.43;;;8.20;99.90;;;;;;4215641;28;20082;-78
2022/01/09 07:10:50;;;;;;;39.30;4.32;;;8.20;99.90;;;;;;4213250;28;20067;-79
2022/01/09 07:12:52;;;;;;;46.50;4.80;;;8.20;99.90;;;;;;4227823;28;20131;-80
2022/01/09 07:14:54;;;;;;;42.85;4.82;;;8.20;99.90;;;;;;4228496;28;20098;-78
2022/01/09 07:16:56;;;;;;;47.20;5.93;;;8.20;99.90;;;;;;4230281;28;20082;-80
2022/01/09 07:18:58;;;;;;;42.63;5.80;;;8.20;99.90;;;;;;4228929;28;20047;-77
2022/01/09 07:21:02;;;;;;;40.25;4.72;;;8.20;99.90;;;;;;4228066;28;20043;-80
2022/01/09 07:23:04;;;;;;;45.22;4.30;;;8.20;99.90;;;;;;4212554;28;20047;-77
2022/01/09 07:25:06;;;;;;;44.95;5.45;;;8.10;99.90;;;;;;4220677;28;20083;-78
2022/01/09 07:27:08;;;;;;;39.38;4.47;;;8.00;99.90;;;;;;4229767;28;20075;-79
2022/01/09 07:29:10;;;;;;;42.20;5.63;;;8.00;99.90;;;;;;4233749;27;20082;-78
2022/01/09 07:31:12;;;;;;;41.97;6.25;;;8.00;99.90;;;;;;4251355;27;20047;-80
2022/01/09 07:33:14;;;;;;;47.15;4.93;;;7.90;99.90;;;;;;4245387;27;20785;-78
2022/01/09 07:35:16;;;;;;;27.95;3.80;;;7.80;99.90;;;;;;4233190;28;20578;-78
2022/01/09 07:37:18;;;;;;;55.00;4.70;;;7.70;99.90;;;;;;4230296;28;20078;-79
2022/01/09 07:39:20;;;;;;;40.47;4.88;;;7.60;99.90;;;;;;4219616;28;20050;-78
2022/01/09 07:41:22;;;;;;;45.45;4.97;;;7.60;99.90;;;;;;4216277;28;20040;-77
2022/01/09 07:43:24;;;;;;;49.15;4.65;;;7.60;99.90;;;;;;4215515;28;20044;-78
2022/01/09 07:45:29;;;;;;;37.55;4.35;;;7.50;99.90;;;;;;4224744;28;20194;-77
2022/01/09 07:47:31;;;;;;;41.58;4.93;;;7.50;99.90;;;;;;4215987;28;20047;-80
2022/01/09 07:49:33;;;;;;;42.78;5.05;;;7.60;99.90;;;;;;4215991;28;20135;-78
2022/01/09 07:51:34;;;;;;;57.75;6.18;;;7.70;99.90;;;;;;4232445;28;20047;-78
2022/01/09 07:53:53;;;;;;;32.60;4.30;;;7.70;99.90;;;;;;4233061;28;20587;-78
2022/01/09 07:55:55;;;;;;;46.20;4.72;;;7.80;99.90;;;;;;4233022;28;20082;-81
2022/01/09 07:57:57;;;;;;;46.97;4.75;;;7.80;99.90;;;;;;4223267;28;20554;-80
2022/01/09 08:00:02;;;;;;;45.22;5.28;;;7.90;99.90;;;;;;4215689;28;20048;-78
2022/01/09 08:02:04;;;;;;;39.40;5.50;;;7.90;99.90;;;;;;4215952;28;20516;-78
2022/01/09 08:04:06;;;;;;;47.65;6.22;;;7.90;99.90;;;;;;4215552;28;20079;-78
2022/01/09 08:06:08;;;;;;;40.50;5.20;;;7.90;99.90;;;;;;4227010;28;20047;-78
2022/01/09 08:08:10;;;;;;;43.25;5.45;;;8.00;99.90;;;;;;4216107;28;20074;-77
2022/01/09 08:10:12;;;;;;;45.55;4.90;;;8.00;99.90;;;;;;4220018;28;20075;-79
2022/01/09 08:12:15;;;;;;;52.75;6.40;;;8.00;99.90;;;;;;4215667;28;20078;-77
2022/01/09 08:14:16;;;;;;;49.55;6.70;;;8.00;99.90;;;;;;4221007;28;20638;-79
2022/01/09 08:16:18;;;;;;;48.40;5.15;;;8.00;99.90;;;;;;4215154;28;20048;-78
2022/01/09 08:18:20;;;;;;;34.88;4.35;;;8.00;99.90;;;;;;4215677;28;20170;-77
2022/01/09 08:20:23;;;;;;;39.17;4.32;;;8.00;99.90;;;;;;4218341;28;20122;-78
2022/01/09 08:22:29;;;;;;;37.70;5.97;;;7.80;99.90;;;;;;4227982;28;20508;-80
2022/01/09 08:24:32;;;;;;;40.60;5.57;;;7.70;99.90;;;;;;4215728;28;20052;-78
2022/01/09 08:26:34;;;;;;;46.28;5.32;;;7.70;99.90;;;;;;4216258;28;20075;-78
2022/01/09 08:28:38;;;;;;;45.67;5.68;;;7.60;99.90;;;;;;4215275;28;20071;-78
2022/01/09 08:30:42;;;;;;;45.00;5.13;;;7.60;99.90;;;;;;4228904;28;20043;-77
2022/01/09 08:32:44;;;;;;;53.45;5.75;;;7.60;99.90;;;;;;4217026;28;20044;-80
2022/01/09 08:34:46;;;;;;;46.85;5.50;;;7.60;99.90;;;;;;4215132;28;20535;-78
2022/01/09 08:36:48;;;;;;;55.42;5.95;;;7.70;99.90;;;;;;4216342;28;20051;-87
2022/01/09 08:38:50;;;;;;;50.95;5.20;;;7.70;99.90;;;;;;4217266;28;20075;-84
2022/01/09 08:40:52;;;;;;;36.20;4.82;;;7.70;99.90;;;;;;4220095;28;20079;-77
2022/01/09 08:42:54;;;;;;;34.40;4.40;;;7.70;99.90;;;;;;4232210;28;20106;-78
2022/01/09 08:44:56;;;;;;;49.78;6.35;;;7.70;99.90;;;;;;4232237;28;20052;-78
2022/01/09 08:46:58;;;;;;;47.17;4.72;;;7.80;99.90;;;;;;4232102;28;20043;-78
2022/01/09 08:49:01;;;;;;;58.10;7.32;;;7.80;99.90;;;;;;4229513;28;20051;-78
2022/01/09 08:51:03;;;;;;;39.75;4.93;;;7.90;99.90;;;;;;4214689;28;20773;-80
2022/01/09 08:53:05;;;;;;;46.85;5.03;;;7.90;99.90;;;;;;4215299;28;20048;-81
2022/01/09 08:55:08;;;;;;;30.90;4.90;;;7.90;99.90;;;;;;4217924;28;20074;-78
2022/01/09 08:57:10;;;;;;;39.20;4.60;;;7.80;99.90;;;;;;4220612;27;20131;-81
2022/01/09 08:59:12;;;;;;;34.47;5.35;;;7.80;99.90;;;;;;4232073;28;20565;-79
2022/01/09 09:01:18;;;;;;;49.08;6.03;;;7.80;99.90;;;;;;4230394;28;20055;-79
2022/01/09 09:03:19;;;;;;;41.05;4.30;;;7.80;99.90;;;;;;4231543;28;20047;-79
2022/01/09 09:05:21;;;;;;;42.45;4.88;;;7.80;99.90;;;;;;4231502;28;20083;-78
2022/01/09 09:07:24;;;;;;;31.20;3.65;;;7.90;99.90;;;;;;4230460;28;20044;-78
2022/01/09 09:09:26;;;;;;;35.08;3.88;;;7.90;99.90;;;;;;4225334;28;20040;-78
2022/01/09 09:11:28;;;;;;;29.52;3.85;;;8.00;99.90;;;;;;4219397;28;20141;-78
2022/01/09 09:13:30;;;;;;;27.98;5.68;;;8.10;99.90;;;;;;4214690;28;20105;-80
2022/01/09 09:15:32;;;;;;;22.90;3.83;;;8.20;99.90;;;;;;4223843;28;20123;-80
2022/01/09 09:17:35;;;;;;;28.27;4.78;;;8.30;99.90;;;;;;4231322;28;20595;-78
2022/01/09 09:19:37;;;;;;;27.08;3.70;;;8.40;99.90;;;;;;4231422;28;20055;-81
2022/01/09 09:21:39;;;;;;;41.78;4.75;;;8.40;99.90;;;;;;4231395;28;20552;-80
2022/01/09 09:23:41;;;;;;;40.17;5.15;;;8.50;99.90;;;;;;4228955;28;20086;-80
2022/01/09 09:25:43;;;;;;;30.30;3.83;;;8.50;99.90;;;;;;4214535;28;20641;-79
2022/01/09 09:27:45;;;;;;;31.45;3.78;;;8.50;99.90;;;;;;4214377;28;20173;-78
2022/01/09 09:29:47;;;;;;;30.77;4.60;;;8.50;99.90;;;;;;4215223;28;20079;-78
2022/01/09 09:31:49;;;;;;;37.75;4.00;;;8.50;99.90;;;;;;4214543;28;20527;-80
2022/01/09 09:33:51;;;;;;;38.13;4.40;;;8.50;99.90;;;;;;4220147;28;20529;-79
2022/01/09 09:35:53;;;;;;;35.50;3.60;;;8.60;99.90;;;;;;4223317;28;20097;-80
2022/01/09 09:37:55;;;;;;;36.50;3.47;;;8.60;99.90;;;;;;4214881;28;20551;-79
2022/01/09 09:39:57;;;;;;;42.80;4.60;;;8.60;99.90;;;;;;4214471;28;20138;-81
2022/01/09 09:42:00;;;;;;;43.85;4.65;;;8.70;99.90;;;;;;4224902;28;20093;-80
2022/01/09 09:44:05;;;;;;;31.80;4.18;;;8.80;99.90;;;;;;4229750;28;20145;-79
2022/01/09 09:46:07;;;;;;;37.95;4.35;;;8.90;99.90;;;;;;4214125;28;20578;-78
2022/01/09 09:48:09;;;;;;;38.60;3.65;;;9.00;99.90;;;;;;4230656;28;20131;-79
2022/01/09 09:50:14;;;;;;;25.70;3.97;;;9.00;99.90;;;;;;4230090;28;20048;-79
2022/01/09 09:52:18;;;;;;;30.17;3.80;;;9.10;99.90;;;;;;4231083;28;20044;-80
2022/01/09 09:54:20;;;;;;;31.23;3.90;;;9.20;99.90;;;;;;4214993;28;20048;-79
2022/01/09 09:56:22;;;;;;;33.72;4.05;;;9.20;99.90;;;;;;4227055;28;20852;-77
2022/01/09 09:58:27;;;;;;;25.55;4.03;;;9.10;99.90;;;;;;4213580;28;20044;-79
2022/01/09 10:00:28;;;;;;;22.73;3.50;;;9.10;99.90;;;;;;4214174;28;20140;-78
2022/01/09 10:02:46;;;;;;;27.20;3.83;;;9.10;99.90;;;;;;4214073;28;20056;-77
2022/01/09 10:05:06;;;;;;;32.45;4.07;;;9.00;99.90;;;;;;4225166;28;20777;-78
2022/01/09 10:07:22;;;;;;;32.35;4.20;;;9.00;99.90;;;;;;4214557;28;20052;-77
2022/01/09 10:09:24;;;;;;;36.83;4.13;;;9.00;99.90;;;;;;4220424;28;20082;-78
2022/01/09 10:11:39;;;;;;;42.63;4.95;;;9.00;99.90;;;;;;4222029;28;20079;-79
2022/01/09 10:13:41;;;;;;;30.15;4.28;;;9.00;99.90;;;;;;4215783;28;20043;-78
2022/01/09 10:15:57;;;;;;;28.92;4.43;;;9.10;99.90;;;;;;4214163;28;20083;-78
2022/01/09 10:17:59;;;;;;;36.30;4.93;;;9.20;99.90;;;;;;4213889;28;20048;-80
2022/01/09 10:20:12;;;;;;;40.85;5.07;;;9.20;99.90;;;;;;4216701;28;20543;-78
2022/01/09 10:22:25;;;;;;;44.80;4.78;;;9.30;99.90;;;;;;4213768;28;20075;-79
2022/01/09 10:24:26;;;;;;;37.67;4.63;;;9.40;99.90;;;;;;4214813;28;20124;-80
2022/01/09 10:26:30;;;;;;;34.80;5.47;;;9.40;99.90;;;;;;4213577;28;20060;-79
2022/01/09 10:28:37;;;;;;;31.58;4.40;;;9.50;99.90;;;;;;4213668;28;20075;-79
2022/01/09 10:30:42;;;;;;;36.83;5.65;;;9.50;99.90;;;;;;4219362;28;20090;-78
2022/01/09 10:32:44;;;;;;;38.25;4.78;;;9.60;99.90;;;;;;4222229;28;20075;-81
2022/01/09 10:35:10;;;;;;;31.58;4.50;;;9.60;99.90;;;;;;4221409;28;20043;-79
2022/01/09 10:37:17;;;;;;;41.40;4.85;;;9.70;99.90;;;;;;4230296;28;20047;-77
2022/01/09 10:39:28;;;;;;;39.38;4.82;;;9.70;99.90;;;;;;4224811;28;20079;-81
2022/01/09 10:41:48;;;;;;;42.28;5.30;;;9.80;99.90;;;;;;4219341;28;20585;-78